Time;durP1;ratioP1;P1;durP2;ratioP2;P2;SDS_P1;SDS_P2;PMS_P1;PMS_P2;Temp;Humidity;BMP_temperature;BMP_pressure;BME280_temperature;BME280_humidity;BME280_pressure;Samples;Min_cycle;Max_cycle;Signal;HPM_P1;HPM_P2
2023/07/07 06:04:52;;;;;;;;;9.67;7.67;;;;;20.79;48.70;101312.66;5056099;27;45609;-76
2023/07/07 06:07:18;;;;;;;;;9.00;7.67;;;;;20.95;49.15;101305.91;5045104;27;45884;-76
2023/07/07 06:09:49;;;;;;;;;7.67;7.00;;;;;21.15;48.74;101307.69;5044470;28;57684;-73
2023/07/07 06:12:15;;;;;;;;;11.00;9.00;;;;;21.36;48.66;101303.16;5045017;27;45632;-73
2023/07/07 06:14:40;;;;;;;;;7.67;7.67;;;;;21.54;48.02;101301.47;5053663;27;58574;-74
2023/07/07 06:17:05;;;;;;;;;10.67;7.33;;;;;21.73;47.36;101302.50;5070988;27;45424;-74
2023/07/07 06:19:31;;;;;;;;;7.00;7.00;;;;;21.90;47.48;101297.38;5035941;28;45518;-74
2023/07/07 06:21:56;;;;;;;;;6.00;6.00;;;;;22.05;47.56;101303.16;5045198;28;45437;-73
2023/07/07 06:24:21;;;;;;;;;7.00;7.00;;;;;22.20;47.72;101298.16;5043451;28;63442;-73
2023/07/07 06:26:47;;;;;;;;;8.00;8.00;;;;;22.34;47.55;101296.84;5096912;27;46047;-73
2023/07/07 06:29:12;;;;;;;;;7.33;7.00;;;;;22.46;46.72;101303.78;5085386;27;45715;-73
2023/07/07 06:31:37;;;;;;;;;7.33;7.00;;;;;22.57;46.48;101313.59;5044451;28;45474;-73
2023/07/07 06:34:03;;;;;;;;;8.00;6.67;;;;;22.66;46.36;101311.00;5044633;28;45669;-73
2023/07/07 06:36:28;;;;;;;;;7.00;7.00;;;;;22.76;46.11;101320.78;5035715;27;55172;-73
2023/07/07 06:38:53;;;;;;;;;9.00;9.00;;;;;22.84;45.40;101316.47;5041816;27;45603;-78
2023/07/07 06:41:21;;;;;;;;;8.00;6.33;;;;;22.90;45.24;101322.13;5052999;27;53168;-81
2023/07/07 06:43:46;;;;;;;;;6.00;6.00;;;;;23.00;45.06;101327.50;5060267;27;46258;-81
2023/07/07 06:46:14;;;;;;;;;8.00;8.00;;;;;23.09;44.83;101330.31;5044062;28;45639;-81
2023/07/07 06:48:39;;;;;;;;;8.00;6.33;;;;;23.17;44.91;101320.41;5044798;27;45634;-82
2023/07/07 06:51:04;;;;;;;;;5.33;5.33;;;;;23.26;44.78;101313.22;5044386;28;45412;-83
2023/07/07 06:53:29;;;;;;;;;6.67;6.33;;;;;23.32;44.95;101310.91;5076411;27;49274;-82
2023/07/07 06:55:55;;;;;;;;;7.00;6.00;;;;;23.41;44.61;101315.44;5070525;27;52060;-81
2023/07/07 06:58:21;;;;;;;;;9.33;8.00;;;;;23.48;44.72;101319.25;5052964;28;46125;-80
2023/07/07 07:00:46;;;;;;;;;6.33;6.00;;;;;23.55;44.65;101319.47;5044218;28;45626;-83
2023/07/07 07:03:12;;;;;;;;;7.33;7.33;;;;;23.61;44.53;101320.69;5043006;28;46113;-85
2023/07/07 07:05:38;;;;;;;;;6.67;6.67;;;;;23.68;44.55;101324.50;5057016;27;45512;-82
2023/07/07 07:08:03;;;;;;;;;7.00;7.00;;;;;23.73;44.53;101324.88;5070684;27;45636;-80
2023/07/07 07:10:29;;;;;;;;;6.00;6.00;;;;;23.77;44.62;101320.00;5033526;27;45487;-79
2023/07/07 07:12:54;;;;;;;;;6.00;5.67;;;;;23.82;44.17;101318.53;5041845;28;45428;-81
2023/07/07 07:15:19;;;;;;;;;5.00;5.00;;;;;23.88;43.91;101314.34;5024462;28;57332;-77
2023/07/07 07:17:45;;;;;;;;;5.67;5.67;;;;;23.92;43.60;101315.72;5038564;27;46959;-77
2023/07/07 07:20:11;;;;;;;;;7.00;7.00;;;;;23.93;43.35;101320.16;5086737;27;45499;-78
2023/07/07 07:22:36;;;;;;;;;5.67;5.67;;;;;23.93;43.17;101320.16;5054774;27;45582;-81
2023/07/07 07:25:02;;;;;;;;;6.33;6.33;;;;;23.97;43.28;101323.38;5011600;28;45872;-87
2023/07/07 07:27:27;;;;;;;;;6.33;6.00;;;;;24.01;43.65;101327.50;5023692;28;45489;-85
2023/07/07 07:29:53;;;;;;;;;9.67;7.33;;;;;24.04;43.36;101324.44;5028537;28;45731;-84
2023/07/07 07:32:18;;;;;;;;;6.00;6.00;;;;;24.08;43.38;101323.13;5087336;27;46706;-82
2023/07/07 07:34:44;;;;;;;;;6.33;5.67;;;;;24.13;43.22;101319.97;5054489;27;45701;-83
2023/07/07 07:37:09;;;;;;;;;6.33;6.33;;;;;24.15;43.69;101326.09;5042051;27;45938;-84
2023/07/07 07:39:35;;;;;;;;;6.00;6.00;;;;;24.21;43.15;101322.72;5015686;27;45802;-81
2023/07/07 07:42:01;;;;;;;;;7.00;7.00;;;;;24.25;43.51;101323.28;5018215;28;47002;-79
2023/07/07 07:44:27;;;;;;;;;6.67;5.00;;;;;24.29;43.64;101327.38;5095040;27;46129;-79
2023/07/07 07:46:55;;;;;;;;;6.33;6.33;;;;;24.32;43.40;101320.78;5028033;27;45601;-79
2023/07/07 07:49:21;;;;;;;;;9.67;6.00;;;;;24.36;43.56;101326.72;5017465;28;45437;-80
2023/07/07 07:51:47;;;;;;;;;6.67;6.00;;;;;24.39;43.56;101318.28;5014522;28;47193;-78
2023/07/07 07:54:13;;;;;;;;;7.00;5.67;;;;;24.43;43.72;101330.50;5014976;28;45463;-78
2023/07/07 07:56:40;;;;;;;;;7.33;6.00;;;;;24.45;43.49;101326.59;5033322;27;45663;-78
2023/07/07 07:59:06;;;;;;;;;6.33;6.00;;;;;24.49;43.42;101327.16;5051864;27;46884;-78
2023/07/07 08:01:32;;;;;;;;;7.00;7.00;;;;;24.52;43.53;101326.81;5040331;27;45693;-80
2023/07/07 08:03:58;;;;;;;;;8.00;6.67;;;;;24.56;43.77;101330.09;5032848;28;45742;-80
2023/07/07 08:06:23;;;;;;;;;6.33;6.33;;;;;24.59;43.52;101329.75;5026341;28;45535;-79
2023/07/07 08:08:49;;;;;;;;;7.00;7.00;;;;;24.63;43.56;101336.56;5028403;28;45569;-84
2023/07/07 08:11:47;;;;;;;;;5.00;5.00;;;;;24.66;43.76;101327.22;5067883;27;45426;-80
2023/07/07 08:14:15;;;;;;;;;9.00;7.00;;;;;24.70;43.44;101332.19;5051909;27;45594;-80
2023/07/07 08:16:40;;;;;;;;;7.33;5.00;;;;;24.72;43.58;101330.16;5009403;28;45465;-79
2023/07/07 08:19:06;;;;;;;;;6.33;6.33;;;;;24.76;43.56;101327.94;5012180;28;45814;-78
2023/07/07 08:21:32;;;;;;;;;7.00;7.00;;;;;24.80;43.61;101331.22;5011854;28;46521;-79
2023/07/07 08:23:57;;;;;;;;;5.33;5.33;;;;;24.83;43.49;101323.63;5017768;27;45497;-78
2023/07/07 08:26:23;;;;;;;;;6.00;6.00;;;;;24.85;42.75;101327.00;5042487;27;45487;-78
2023/07/07 08:28:48;;;;;;;;;5.67;5.67;;;;;24.88;43.42;101322.28;5029569;28;45452;-82
2023/07/07 08:31:14;;;;;;;;;7.00;6.00;;;;;24.89;43.43;101322.09;5016650;28;46115;-80
2023/07/07 08:33:41;;;;;;;;;5.00;5.00;;;;;24.91;43.31;101320.09;5011500;28;45506;-80
2023/07/07 08:36:07;;;;;;;;;5.00;5.00;;;;;24.95;43.16;101329.59;5043521;27;45622;-81
2023/07/07 08:38:32;;;;;;;;;7.00;7.00;;;;;24.96;42.52;101331.31;5052281;27;45607;-81
2023/07/07 08:40:57;;;;;;;;;8.00;8.00;;;;;24.97;42.82;101329.44;5026208;28;57164;-81
2023/07/07 08:43:27;;;;;;;;;7.67;7.00;;;;;24.96;42.87;101316.88;5032521;27;45629;-80
2023/07/07 08:46:01;;;;;;;;;7.33;7.33;;;;;24.95;42.37;101316.03;5023637;28;45572;-82
2023/07/07 08:48:43;;;;;;;;;9.33;9.00;;;;;24.95;42.69;101320.59;5035769;27;45469;-84
2023/07/07 08:51:16;;;;;;;;;6.00;6.00;;;;;24.95;42.48;101317.88;5057223;27;45490;-89
2023/07/07 08:53:53;;;;;;;;;7.00;6.33;;;;;24.95;42.60;101323.31;5032909;28;45815;-90
2023/07/07 08:56:29;;;;;;;;;7.33;7.00;;;;;24.94;42.63;101318.91;5029484;28;45476;-87
2023/07/07 08:59:36;;;;;;;;;7.33;7.33;;;;;24.96;42.66;101323.16;5029431;28;45451;-83
2023/07/07 09:02:39;;;;;;;;;8.33;6.00;;;;;24.97;42.54;101318.59;5062318;27;46064;-88
2023/07/07 09:05:26;;;;;;;;;9.00;6.67;;;;;24.98;42.68;101309.41;5069787;28;45873;-85
2023/07/07 09:08:01;;;;;;;;;10.00;8.33;;;;;24.97;42.79;101310.44;5070641;28;45499;-82
2023/07/07 09:10:32;;;;;;;;;7.67;7.67;;;;;24.98;42.57;101302.09;5070180;27;45476;-85
2023/07/07 09:13:05;;;;;;;;;6.67;5.67;;;;;25.00;42.69;101308.25;5067830;28;45591;-85
2023/07/07 09:15:41;;;;;;;;;6.33;6.33;;;;;25.02;42.51;101312.66;5066520;28;45787;-86
2023/07/07 09:18:22;;;;;;;;;3.67;3.67;;;;;25.02;42.60;101315.38;5070721;27;45696;-86
2023/07/07 09:20:56;;;;;;;;;7.33;7.33;;;;;25.03;42.43;101312.50;5067957;27;45831;-86
2023/07/07 09:23:28;;;;;;;;;5.00;5.00;;;;;25.03;42.67;101306.19;5066530;27;45671;-87
2023/07/07 09:26:02;;;;;;;;;7.33;6.00;;;;;25.04;42.77;101305.16;5071708;27;45752;-84
2023/07/07 09:28:33;;;;;;;;;8.00;8.00;;;;;25.02;42.33;101288.22;5066261;28;45603;-83
2023/07/07 09:31:19;;;;;;;;;6.33;6.33;;;;;25.05;42.45;101301.47;5069274;27;45438;-83
2023/07/07 09:33:44;;;;;;;;;6.33;6.33;;;;;25.05;42.57;101298.75;5069228;27;45640;-82
2023/07/07 09:36:16;;;;;;;;;8.67;6.00;;;;;25.05;42.88;101293.31;5036891;27;45436;-91
2023/07/07 09:38:56;;;;;;;;;6.67;5.00;;;;;25.05;42.71;101296.88;5029534;27;45447;-86
2023/07/07 09:41:53;;;;;;;;;6.67;6.33;;;;;25.06;42.70;101297.72;5046517;27;45679;-88
2023/07/07 09:44:34;;;;;;;;;5.00;5.00;;;;;25.07;42.77;101294.00;5051849;27;46869;-86
2023/07/07 09:47:27;;;;;;;;;4.67;4.67;;;;;25.06;42.81;101292.28;5016281;28;45511;-77
2023/07/07 09:49:58;;;;;;;;;7.00;7.00;;;;;25.06;42.58;101298.56;5029550;28;45426;-77
2023/07/07 09:52:47;;;;;;;;;8.33;8.33;;;;;25.05;43.14;101286.00;5019199;28;45451;-78
2023/07/07 09:55:26;;;;;;;;;6.00;5.00;;;;;25.05;43.00;101294.16;5075711;27;45569;-80
2023/07/07 09:58:03;;;;;;;;;9.00;7.00;;;;;25.05;43.54;101296.88;5029031;28;45421;-79
2023/07/07 10:00:32;;;;;;;;;8.00;5.00;;;;;25.08;42.99;101288.41;5023147;28;45391;-80
2023/07/07 10:02:59;;;;;;;;;6.00;6.00;;;;;25.08;42.95;101290.25;5022429;28;45429;-80
2023/07/07 10:05:32;;;;;;;;;6.33;6.00;;;;;25.13;43.60;101298.75;5029032;28;46418;-78
2023/07/07 10:08:00;;;;;;;;;6.33;5.67;;;;;25.16;43.08;101294.84;5051359;27;45662;-80
2023/07/07 10:10:25;;;;;;;;;8.00;6.00;;;;;25.17;42.44;101291.13;5044454;27;45611;-81
2023/07/07 10:12:51;;;;;;;;;7.00;7.00;;;;;25.18;42.99;101285.53;5028313;28;45558;-80
2023/07/07 10:15:46;;;;;;;;;6.33;5.33;;;;;25.18;43.03;101285.53;5028763;28;58367;-81
2023/07/07 10:18:24;;;;;;;;;7.00;6.00;;;;;25.17;42.60;101283.81;5023374;28;45569;-80
2023/07/07 10:20:50;;;;;;;;;7.00;5.33;;;;;25.18;42.51;101279.25;5024987;27;45467;-79
2023/07/07 10:23:16;;;;;;;;;6.00;6.00;;;;;25.17;42.44;101269.41;5081776;27;45525;-79
2023/07/07 10:25:43;;;;;;;;;7.00;6.33;;;;;25.17;42.66;101274.84;5028604;28;46117;-81
2023/07/07 10:28:12;;;;;;;;;5.33;5.33;;;;;25.17;42.53;101277.56;5028501;28;45470;-82
2023/07/07 10:30:40;;;;;;;;;8.00;7.00;;;;;25.17;42.81;101272.13;5028258;28;45602;-80
2023/07/07 10:33:09;;;;;;;;;6.00;6.00;;;;;25.18;42.87;101263.78;5041514;27;45440;-82
2023/07/07 10:35:34;;;;;;;;;2.67;2.67;;;;;25.18;43.00;101265.66;5065704;27;45438;-82
2023/07/07 10:38:04;;;;;;;;;7.00;5.00;;;;;25.18;43.01;101271.09;5027535;28;45507;-81
2023/07/07 10:40:30;;;;;;;;;8.00;6.00;;;;;25.20;43.00;101264.50;5028501;28;45383;-81
2023/07/07 10:42:57;;;;;;;;;5.33;5.33;;;;;25.20;42.94;101256.34;5028062;28;45359;-81
2023/07/07 10:45:23;;;;;;;;;7.00;7.00;;;;;25.22;42.85;101257.00;5030267;27;46137;-79
2023/07/07 10:47:49;;;;;;;;;6.00;6.00;;;;;25.24;42.86;101251.41;5065264;27;45399;-78
2023/07/07 10:50:17;;;;;;;;;5.67;5.00;;;;;25.25;42.99;101262.13;5038219;27;45476;-76
2023/07/07 10:53:02;;;;;;;;;7.00;7.00;;;;;25.26;42.83;101255.66;5012539;28;45619;-77
2023/07/07 10:55:55;;;;;;;;;5.67;5.67;;;;;25.28;42.68;101255.50;5028606;27;46159;-77
2023/07/07 10:58:33;;;;;;;;;6.00;5.33;;;;;25.30;42.44;101253.44;5017694;27;45462;-77
2023/07/07 11:01:14;;;;;;;;;6.67;6.00;;;;;25.31;42.95;101244.31;5037797;27;45389;-77
2023/07/07 11:04:06;;;;;;;;;5.67;5.67;;;;;25.30;42.61;101236.31;5035320;27;45468;-85
2023/07/07 11:06:37;;;;;;;;;4.00;4.00;;;;;25.31;43.15;101244.31;5038952;27;46519;-79
2023/07/07 11:09:19;;;;;;;;;5.33;5.00;;;;;25.34;43.12;101240.41;5027678;27;45852;-82
2023/07/07 11:12:05;;;;;;;;;6.67;6.00;;;;;25.35;43.54;101233.94;5047131;27;45489;-79
2023/07/07 11:14:39;;;;;;;;;4.00;4.00;;;;;25.39;43.56;101229.88;5070131;27;45387;-80
2023/07/07 11:17:28;;;;;;;;;5.00;5.00;;;;;25.41;43.32;101222.38;5031105;28;46179;-80
2023/07/07 11:19:56;;;;;;;;;5.33;5.00;;;;;25.44;43.42;101219.34;5031227;27;45361;-82
2023/07/07 11:22:27;;;;;;;;;4.33;4.33;;;;;25.46;43.25;101214.56;5019310;28;45486;-80
2023/07/07 11:25:03;;;;;;;;;7.00;4.33;;;;;25.48;43.74;101219.84;5049286;27;45807;-82
2023/07/07 11:27:54;;;;;;;;;2.33;2.33;;;;;25.51;43.60;101216.78;5047543;27;45611;-83
2023/07/07 11:30:29;;;;;;;;;7.67;6.00;;;;;25.53;42.83;101210.16;5036909;28;45480;-80
2023/07/07 11:33:10;;;;;;;;;4.67;4.67;;;;;25.55;43.36;101214.56;5030999;28;45314;-77
2023/07/07 11:35:48;;;;;;;;;5.67;5.67;;;;;25.56;43.45;101203.56;5026054;27;45413;-76
2023/07/07 11:38:40;;;;;;;;;6.67;6.33;;;;;25.59;43.00;101207.81;5056570;27;45616;-77
2023/07/07 11:41:21;;;;;;;;;4.33;4.33;;;;;25.61;43.39;101209.34;5075504;27;45563;-79
2023/07/07 11:43:55;;;;;;;;;5.00;5.00;;;;;25.63;43.74;101203.72;5025773;28;45437;-78
2023/07/07 11:47:14;;;;;;;;;5.67;5.00;;;;;25.68;43.80;101198.63;5031062;28;45528;-78
2023/07/07 11:49:55;;;;;;;;;6.00;6.00;;;;;25.68;43.38;101204.06;5071421;27;46339;-83
2023/07/07 11:52:46;;;;;;;;;7.67;6.00;;;;;25.68;43.04;101198.63;5068889;27;45530;-78
2023/07/07 11:55:27;;;;;;;;;6.00;5.67;;;;;25.67;43.31;101193.38;5071053;27;45575;-84
2023/07/07 11:58:24;;;;;;;;;7.00;7.00;;;;;25.63;42.52;101187.44;5071578;28;45411;-82
2023/07/07 12:00:49;;;;;;;;;6.67;6.67;;;;;25.64;42.79;101189.13;5029494;28;46243;-81
2023/07/07 12:03:45;;;;;;;;;6.00;5.67;;;;;25.64;42.61;101180.97;5029899;28;45502;-81
2023/07/07 12:06:19;;;;;;;;;7.33;6.67;;;;;25.64;42.73;101198.13;5028149;28;46124;-79
2023/07/07 12:09:10;;;;;;;;;5.00;5.00;;;;;25.64;42.71;101186.41;5028496;28;45490;-80
2023/07/07 12:11:52;;;;;;;;;6.33;4.00;;;;;25.62;42.63;101170.25;5030244;28;46215;-79
2023/07/07 12:14:45;;;;;;;;;5.33;4.33;;;;;25.64;42.23;101172.81;5029119;28;45643;-80
2023/07/07 12:17:17;;;;;;;;;5.00;5.00;;;;;25.63;42.21;101168.41;5028199;28;45420;-79
2023/07/07 12:19:51;;;;;;;;;4.00;4.00;;;;;25.64;42.76;101178.25;5042597;27;45563;-79
2023/07/07 12:22:21;;;;;;;;;5.00;5.00;;;;;25.64;42.30;101162.81;5073047;27;45572;-80
2023/07/07 12:24:58;;;;;;;;;5.00;5.00;;;;;25.66;42.38;101162.59;5070318;27;45541;-79
2023/07/07 12:27:39;;;;;;;;;4.67;4.00;;;;;25.65;42.30;101169.06;5070943;28;45466;-80
2023/07/07 12:30:06;;;;;;;;;5.00;5.00;;;;;25.65;42.26;101166.34;5057699;27;45464;-79
2023/07/07 12:32:33;;;;;;;;;4.33;4.33;;;;;25.65;42.66;101159.06;5064365;27;45618;-79
2023/07/07 12:35:25;;;;;;;;;7.00;5.00;;;;;25.65;42.23;101169.06;5063040;28;45646;-80
2023/07/07 12:37:50;;;;;;;;;4.67;4.67;;;;;25.67;42.65;101158.88;5040788;27;45528;-78
2023/07/07 12:40:18;;;;;;;;;5.00;4.67;;;;;25.68;42.56;101160.56;5014790;28;45423;-79
2023/07/07 12:42:45;;;;;;;;;4.67;4.67;;;;;25.69;42.07;101142.38;5061967;27;45471;-78
2023/07/07 12:45:30;;;;;;;;;6.00;4.67;;;;;25.69;42.22;101147.81;5042415;27;45496;-78
2023/07/07 12:48:00;;;;;;;;;5.00;3.67;;;;;25.67;42.65;101149.88;5030152;28;45692;-78
2023/07/07 12:50:35;;;;;;;;;5.00;5.00;;;;;25.70;42.80;101153.09;5029053;28;45668;-82
2023/07/07 12:53:05;;;;;;;;;4.67;4.67;;;;;25.70;42.01;101138.66;5018454;28;46128;-80
2023/07/07 12:55:36;;;;;;;;;5.33;5.33;;;;;25.71;42.48;101129.47;5038402;27;45589;-80
2023/07/07 12:58:04;;;;;;;;;6.00;4.67;;;;;25.70;42.09;101139.50;5037224;27;45563;-79
2023/07/07 13:00:33;;;;;;;;;7.00;7.00;;;;;25.71;42.68;101137.63;5091683;27;45460;-80
2023/07/07 13:03:17;;;;;;;;;5.33;5.00;;;;;25.71;42.76;101141.19;5028587;28;45684;-79
2023/07/07 13:05:48;;;;;;;;;7.00;5.00;;;;;25.70;42.44;101138.66;5029898;28;45372;-85
2023/07/07 13:08:33;;;;;;;;;3.33;3.33;;;;;25.72;42.69;101133.88;5029615;27;45644;-80
2023/07/07 13:11:07;;;;;;;;;5.00;5.00;;;;;25.69;42.24;101131.50;5050861;27;45897;-81
2023/07/07 13:13:39;;;;;;;;;4.00;4.00;;;;;25.71;42.58;101130.31;5069946;27;47095;-80
2023/07/07 13:16:10;;;;;;;;;4.33;4.33;;;;;25.71;42.38;101132.19;5029843;28;45456;-79
2023/07/07 13:18:36;;;;;;;;;6.33;6.33;;;;;25.71;42.22;101130.31;5030899;27;45540;-79
2023/07/07 13:21:02;;;;;;;;;4.67;4.67;;;;;25.72;42.30;101125.72;5078598;27;45459;-80
2023/07/07 13:23:37;;;;;;;;;4.00;4.00;;;;;25.72;42.32;101131.16;5041847;27;46297;-79
2023/07/07 13:26:02;;;;;;;;;3.00;3.00;;;;;25.73;42.20;101132.84;5033446;27;45414;-80
2023/07/07 13:28:28;;;;;;;;;5.00;4.00;;;;;25.71;42.71;101127.59;5024363;28;48113;-86
2023/07/07 13:30:56;;;;;;;;;4.33;4.33;;;;;25.73;42.29;101127.41;5025938;28;45443;-81
2023/07/07 13:33:27;;;;;;;;;5.00;3.33;;;;;25.72;42.42;101132.03;5040676;27;46036;-82
2023/07/07 13:35:57;;;;;;;;;4.00;4.00;;;;;25.73;42.31;101120.13;5059920;27;45430;-80
2023/07/07 13:38:26;;;;;;;;;4.00;4.00;;;;;25.73;42.24;101113.81;5098773;27;45862;-84
2023/07/07 13:40:52;;;;;;;;;2.00;2.00;;;;;25.73;42.17;101116.53;5034359;27;45367;-81
2023/07/07 13:43:25;;;;;;;;;4.00;4.00;;;;;25.72;42.60;101113.00;5027216;28;45605;-92
2023/07/07 13:45:58;;;;;;;;;4.67;4.67;;;;;25.72;42.36;101113.00;5017111;28;45588;-81
2023/07/07 13:48:26;;;;;;;;;4.00;4.00;;;;;25.74;42.82;101112.78;5042183;27;46029;-82
2023/07/07 13:50:52;;;;;;;;;5.33;3.33;;;;;25.75;42.89;101109.06;5060728;27;45498;-79
2023/07/07 13:53:18;;;;;;;;;5.00;4.00;;;;;25.76;42.11;101108.06;5059327;27;46170;-88
2023/07/07 13:55:48;;;;;;;;;4.00;4.00;;;;;25.77;42.65;101104.31;5033519;28;45455;-86
2023/07/07 13:58:17;;;;;;;;;3.00;3.00;;;;;25.74;42.29;101094.63;5015171;28;45452;-87
2023/07/07 14:00:44;;;;;;;;;7.67;4.67;;;;;25.77;42.54;101097.00;5024321;27;45623;-83
2023/07/07 14:03:19;;;;;;;;;4.00;4.00;;;;;25.77;42.17;101086.13;5050977;27;46098;-80
2023/07/07 14:05:48;;;;;;;;;4.00;4.00;;;;;25.78;42.85;101090.53;5013706;28;45433;-80
2023/07/07 14:08:17;;;;;;;;;3.67;3.67;;;;;25.77;42.30;101088.84;5024500;28;46155;-81
2023/07/07 14:10:47;;;;;;;;;3.67;3.67;;;;;25.78;42.79;101082.38;5011768;28;45832;-81
2023/07/07 14:13:18;;;;;;;;;5.00;4.67;;;;;25.78;42.85;101074.22;5023823;27;45611;-81
2023/07/07 14:16:07;;;;;;;;;4.00;4.00;;;;;25.79;42.47;101075.09;5071289;27;45446;-80
2023/07/07 14:18:42;;;;;;;;;3.33;3.33;;;;;25.79;42.58;101073.19;5012723;27;45421;-84
2023/07/07 14:21:11;;;;;;;;;4.00;4.00;;;;;25.79;42.40;101073.19;5027887;28;45529;-83
2023/07/07 14:23:40;;;;;;;;;4.33;4.33;;;;;25.81;42.89;101061.28;5020912;27;45539;-83
2023/07/07 14:26:15;;;;;;;;;4.33;4.00;;;;;25.82;42.28;101065.72;5030665;28;45420;-78
2023/07/07 14:28:40;;;;;;;;;4.33;4.33;;;;;25.82;42.31;101072.00;5055138;27;45631;-79
2023/07/07 14:31:09;;;;;;;;;4.00;4.00;;;;;25.81;42.41;101067.59;5092419;27;45591;-85
2023/07/07 14:34:00;;;;;;;;;4.33;4.33;;;;;25.82;42.56;101060.28;5030006;28;46610;-84
2023/07/07 14:36:31;;;;;;;;;5.33;4.33;;;;;25.83;42.78;101061.97;5003840;28;45849;-84
2023/07/07 14:38:59;;;;;;;;;3.00;3.00;;;;;25.83;42.42;101067.41;5027605;28;45520;-81
2023/07/07 14:41:31;;;;;;;;;4.33;4.00;;;;;25.83;42.36;101062.81;5053701;27;45652;-82
2023/07/07 14:43:57;;;;;;;;;4.33;4.33;;;;;25.85;42.35;101063.50;5086859;27;46331;-85
2023/07/07 14:46:31;;;;;;;;;6.00;4.33;;;;;25.84;42.50;101058.22;5027102;28;45509;-83
2023/07/07 14:49:05;;;;;;;;;4.00;4.00;;;;;25.85;42.46;101068.06;5018862;28;45557;-82
2023/07/07 14:51:40;;;;;;;;;4.00;3.33;;;;;25.85;42.42;101055.34;5023042;28;45739;-85
2023/07/07 14:54:15;;;;;;;;;5.00;5.00;;;;;25.86;42.60;101054.31;5037589;27;47349;-79
2023/07/07 14:56:48;;;;;;;;;3.00;3.00;;;;;25.86;42.84;101048.00;5057223;27;45587;-84
2023/07/07 14:59:19;;;;;;;;;5.67;5.00;;;;;25.85;42.51;101052.63;5028421;28;45451;-84
2023/07/07 15:01:54;;;;;;;;;8.00;5.00;;;;;25.85;42.42;101049.91;5020149;28;45558;-87
2023/07/07 15:04:23;;;;;;;;;3.67;3.67;;;;;25.87;42.84;101053.28;5022634;28;46184;-79
2023/07/07 15:06:52;;;;;;;;;4.00;4.00;;;;;25.88;43.14;101044.09;5051475;27;45547;-81
2023/07/07 15:09:19;;;;;;;;;5.00;5.00;;;;;25.88;42.44;101044.09;5098176;27;45520;-84
2023/07/07 15:11:45;;;;;;;;;5.00;3.33;;;;;25.89;42.50;101039.50;5025846;27;45610;-86
2023/07/07 15:14:12;;;;;;;;;5.00;3.00;;;;;25.89;42.84;101042.22;5014143;28;46730;-84
2023/07/07 15:16:39;;;;;;;;;4.00;4.00;;;;;25.89;42.34;101044.94;5029544;28;45663;-80
2023/07/07 15:19:23;;;;;;;;;4.00;4.00;;;;;25.90;42.88;101039.34;5048003;27;45527;-84
2023/07/07 15:21:49;;;;;;;;;6.00;3.33;;;;;25.89;43.03;101034.06;5066169;27;47663;-86
2023/07/07 15:24:15;;;;;;;;;5.33;5.33;;;;;25.89;42.76;101026.78;5027283;28;46275;-83
2023/07/07 15:26:41;;;;;;;;;5.00;5.00;;;;;25.90;42.90;101025.75;5017852;28;45435;-82
2023/07/07 15:29:16;;;;;;;;;3.00;3.00;;;;;25.90;42.67;101023.03;5029298;28;45617;-82
2023/07/07 15:31:42;;;;;;;;;4.33;4.33;;;;;25.90;42.95;101023.03;5047699;27;45469;-78
2023/07/07 15:34:07;;;;;;;;;3.33;3.33;;;;;25.91;42.60;101026.56;5041759;27;46283;-84
2023/07/07 15:36:33;;;;;;;;;5.00;5.00;;;;;25.91;42.75;101019.28;5023936;27;45559;-84
2023/07/07 15:38:58;;;;;;;;;3.33;3.33;;;;;25.89;43.07;101015.91;5027680;27;45516;-87
2023/07/07 15:41:26;;;;;;;;;3.00;3.00;;;;;25.93;42.58;101024.53;5031149;28;45481;-86
2023/07/07 15:43:52;;;;;;;;;5.67;4.00;;;;;25.94;42.79;101023.50;5020570;27;46178;-88
2023/07/07 15:46:28;;;;;;;;;2.67;2.67;;;;;25.95;42.98;101016.22;5052731;27;45464;-84
2023/07/07 15:48:55;;;;;;;;;4.00;3.00;;;;;25.95;42.76;101024.38;5075049;27;45375;-91
2023/07/07 15:51:27;;;;;;;;;3.67;3.67;;;;;25.95;43.13;101008.06;5029622;28;45463;-91
2023/07/07 15:53:54;;;;;;;;;4.00;4.00;;;;;25.94;42.86;101012.63;5045962;27;45583;-86
2023/07/07 15:56:21;;;;;;;;;4.33;3.00;;;;;25.94;42.65;101018.06;5107271;27;45725;-85
2023/07/07 15:58:46;;;;;;;;;4.00;3.00;;;;;25.95;42.69;101005.34;5034806;27;45596;-83
2023/07/07 16:01:11;;;;;;;;;5.00;5.00;;;;;25.95;42.83;101006.16;5086754;27;45433;-86
2023/07/07 16:03:37;;;;;;;;;3.67;3.67;;;;;25.95;42.54;101000.72;5023848;28;57735;-84
2023/07/07 16:06:03;;;;;;;;;5.33;4.00;;;;;25.96;43.17;101004.31;5024325;28;53261;-85
2023/07/07 16:08:28;;;;;;;;;4.67;4.00;;;;;25.94;43.33;101001.75;5030003;28;45483;-82
2023/07/07 16:10:53;;;;;;;;;3.33;3.33;;;;;25.95;43.18;100997.19;5049570;27;54042;-81
2023/07/07 16:13:18;;;;;;;;;3.67;3.00;;;;;25.95;42.85;100997.19;5031999;27;45508;-90
2023/07/07 16:15:44;;;;;;;;;4.67;3.00;;;;;25.94;43.29;100985.44;5024066;28;53663;-78
2023/07/07 16:18:09;;;;;;;;;3.33;3.33;;;;;25.95;42.84;100978.97;5024318;28;47475;-84
2023/07/07 16:20:36;;;;;;;;;6.00;4.00;;;;;25.97;43.11;100986.94;5029123;27;45432;-84
2023/07/07 16:23:01;;;;;;;;;3.00;3.00;;;;;25.96;43.27;100987.97;5028945;28;45437;-83
2023/07/07 16:25:28;;;;;;;;;3.00;3.00;;;;;25.96;42.96;100980.69;5063633;27;45768;-81
2023/07/07 16:27:54;;;;;;;;;4.00;4.00;;;;;25.98;43.09;100991.34;5031641;27;45749;-86
2023/07/07 16:30:30;;;;;;;;;4.00;3.67;;;;;25.97;43.21;100978.78;5048002;27;45556;-87
2023/07/07 16:32:56;;;;;;;;;3.00;3.00;;;;;25.97;43.31;100971.50;5033988;27;45597;-87
2023/07/07 16:35:22;;;;;;;;;4.33;4.00;;;;;25.98;42.88;100983.19;5019877;28;52246;-86
2023/07/07 16:37:48;;;;;;;;;5.33;3.00;;;;;25.97;42.97;100970.63;5017658;28;45569;-78
2023/07/07 16:40:16;;;;;;;;;3.00;3.00;;;;;25.98;43.28;100978.63;5029404;28;45441;-77
2023/07/07 16:42:42;;;;;;;;;3.67;3.67;;;;;25.98;42.93;100980.47;5045529;27;46165;-84
2023/07/07 16:45:08;;;;;;;;;4.00;3.67;;;;;25.99;43.12;100976.75;5036662;27;53767;-83
2023/07/07 16:47:33;;;;;;;;;5.00;3.33;;;;;26.01;43.50;100977.41;5024849;28;45423;-85
2023/07/07 16:49:58;;;;;;;;;3.00;3.00;;;;;25.99;43.03;100966.72;5021520;28;58954;-88
2023/07/07 16:52:24;;;;;;;;;6.33;3.00;;;;;26.00;43.51;100967.56;5025112;28;46283;-84
2023/07/07 16:54:49;;;;;;;;;4.00;4.00;;;;;26.01;43.36;100972.84;5048618;27;45806;-86
2023/07/07 16:57:16;;;;;;;;;4.00;3.00;;;;;25.99;42.64;100974.03;5054839;27;45872;-88
2023/07/07 16:59:41;;;;;;;;;4.33;4.33;;;;;25.98;43.60;100975.91;5040432;27;45496;-81
2023/07/07 17:02:09;;;;;;;;;4.00;4.00;;;;;25.99;43.09;100971.31;5017409;28;45372;-87
2023/07/07 17:04:34;;;;;;;;;2.33;2.33;;;;;26.00;43.44;100970.28;5019690;28;45513;-86
2023/07/07 17:28:28;;;;;;;;;4.00;3.67;;;;;24.74;45.14;100975.25;5049425;27;45827;-74
2023/07/07 17:30:54;;;;;;;;;5.67;3.33;;;;;24.79;45.10;100965.75;5034852;28;45677;-74
2023/07/07 17:33:19;;;;;;;;;5.00;4.00;;;;;24.85;44.99;100967.81;5037092;28;45498;-74
2023/07/07 17:35:44;;;;;;;;;6.00;4.00;;;;;24.97;44.78;100971.03;5035243;28;45553;-73
2023/07/07 17:38:13;;;;;;;;;6.33;4.67;;;;;25.04;44.46;100958.44;5041119;28;46073;-74
2023/07/07 17:40:40;;;;;;;;;3.00;3.00;;;;;25.15;44.44;100970.81;5042510;28;45388;-75
